createdAt,value
2022-08-16T00:01:24.706Z,20.93
2022-08-16T00:03:53.484Z,20.94
2022-08-16T00:06:22.595Z,20.94
2022-08-16T00:08:52.459Z,20.91
2022-08-16T00:11:22.932Z,20.90
2022-08-16T00:13:53.844Z,20.92
2022-08-16T00:17:05.330Z,20.91
2022-08-16T00:19:14.113Z,20.91
2022-08-16T00:21:43.279Z,20.89
2022-08-16T00:24:12.388Z,20.82
2022-08-16T00:26:44.228Z,20.78
2022-08-16T00:29:15.638Z,20.76
2022-08-16T00:31:58.781Z,20.73
2022-08-16T00:34:45.193Z,20.65
2022-08-16T00:37:20.321Z,20.61
2022-08-16T00:39:58.220Z,20.55
2022-08-16T00:42:31.736Z,20.47
2022-08-16T00:45:09.497Z,20.40
2022-08-16T00:47:49.401Z,20.38
2022-08-16T00:50:18.273Z,20.35
2022-08-16T00:52:51.084Z,20.33
2022-08-16T00:55:22.261Z,20.28
2022-08-16T00:57:59.781Z,20.23
2022-08-16T01:00:30.269Z,20.14
2022-08-16T01:03:00.963Z,20.09
2022-08-16T01:05:30.064Z,20.07
2022-08-16T01:08:01.573Z,20.02
2022-08-16T01:10:33.622Z,20.00
2022-08-16T01:13:07.897Z,20.00
2022-08-16T01:15:43.366Z,19.98
2022-08-16T01:18:40.617Z,19.98
2022-08-16T01:21:22.422Z,19.98
2022-08-16T01:24:52.016Z,20.01
2022-08-16T01:27:03.666Z,20.02
2022-08-16T01:29:56.831Z,20.00
2022-08-16T01:32:33.225Z,20.01
2022-08-16T01:35:03.764Z,20.01
2022-08-16T01:37:42.269Z,19.99
2022-08-16T01:40:15.451Z,19.99
2022-08-16T01:42:48.232Z,19.96
2022-08-16T01:45:19.933Z,19.96
2022-08-16T01:47:51.935Z,19.93
2022-08-16T01:50:44.278Z,19.95
2022-08-16T01:53:11.060Z,19.99
2022-08-16T01:55:42.889Z,20.02
2022-08-16T01:58:24.985Z,20.05
2022-08-16T02:00:53.366Z,20.08
2022-08-16T02:03:24.295Z,20.11
2022-08-16T02:05:52.686Z,20.12
2022-08-16T02:08:33.056Z,20.13
2022-08-16T02:11:06.850Z,20.08
2022-08-16T02:13:35.831Z,20.19
2022-08-16T02:16:18.327Z,20.23
2022-08-16T02:18:47.435Z,20.25
2022-08-16T02:21:16.586Z,20.23
2022-08-16T02:23:44.720Z,20.24
2022-08-16T02:26:15.848Z,20.25
2022-08-16T02:28:47.216Z,20.26
2022-08-16T02:31:16.338Z,20.30
2022-08-16T02:33:50.012Z,20.37
2022-08-16T02:36:47.198Z,20.49
2022-08-16T02:39:10.014Z,20.60
2022-08-16T02:41:42.375Z,20.68
2022-08-16T02:44:13.832Z,20.74
2022-08-16T02:46:49.736Z,20.71
2022-08-16T02:49:18.989Z,20.66
2022-08-16T02:51:48.562Z,20.64
2022-08-16T02:54:18.390Z,20.55
2022-08-16T02:56:49.155Z,20.46
2022-08-16T02:59:17.798Z,20.42
2022-08-16T03:01:47.407Z,20.39
2022-08-16T03:04:40.806Z,20.39
2022-08-16T03:07:06.298Z,20.41
2022-08-16T03:09:34.438Z,20.40
2022-08-16T03:12:05.945Z,20.41
2022-08-16T03:14:35.397Z,20.42
2022-08-16T03:17:03.480Z,20.38
2022-08-16T03:19:47.857Z,20.37
2022-08-16T03:22:28.012Z,20.36
2022-08-16T03:25:00.841Z,20.39
2022-08-16T03:27:32.626Z,20.45
2022-08-16T03:30:02.608Z,20.45
2022-08-16T03:32:47.219Z,20.46
2022-08-16T03:35:17.888Z,20.46
2022-08-16T03:38:03.013Z,20.45
2022-08-16T03:40:34.314Z,20.50
2022-08-16T03:43:20.562Z,20.49
2022-08-16T03:45:52.694Z,20.52
2022-08-16T03:48:37.211Z,20.56
2022-08-16T03:51:09.797Z,20.59
2022-08-16T03:53:40.934Z,20.61
2022-08-16T03:56:20.818Z,20.60
2022-08-16T03:58:52.662Z,20.58
2022-08-16T04:01:21.466Z,20.56
2022-08-16T04:03:50.891Z,20.56
2022-08-16T04:06:21.908Z,20.59
2022-08-16T04:08:50.432Z,20.66
2022-08-16T04:11:19.811Z,20.72
2022-08-16T04:14:00.120Z,20.75
2022-08-16T04:16:36.612Z,20.87
2022-08-16T04:19:05.053Z,20.93
2022-08-16T04:21:34.389Z,21.00
2022-08-16T04:24:07.775Z,21.02
2022-08-16T04:26:36.380Z,21.01
2022-08-16T04:29:17.087Z,21.00
2022-08-16T04:31:56.201Z,20.98
2022-08-16T04:34:28.550Z,20.96
2022-08-16T04:37:00.984Z,21.01
2022-08-16T04:39:45.897Z,21.05
2022-08-16T04:42:16.706Z,21.06
2022-08-16T04:44:53.590Z,21.04
2022-08-16T04:47:33.343Z,20.95
2022-08-16T04:50:06.480Z,20.82
2022-08-16T04:52:36.386Z,20.77
2022-08-16T04:55:07.722Z,20.70
2022-08-16T04:57:36.899Z,20.66
2022-08-16T05:00:31.633Z,20.61
2022-08-16T05:03:02.773Z,20.63
2022-08-16T05:05:45.525Z,20.59
2022-08-16T05:08:28.799Z,20.65
2022-08-16T05:11:00.376Z,20.69
2022-08-16T05:13:40.391Z,20.79
2022-08-16T05:16:19.734Z,20.98
2022-08-16T05:18:50.016Z,21.12
2022-08-16T05:21:19.448Z,21.21
2022-08-16T05:23:49.615Z,21.22
2022-08-16T05:26:24.943Z,21.16
2022-08-16T05:28:56.748Z,21.11
2022-08-16T05:31:29.799Z,21.14
2022-08-16T05:34:00.021Z,21.19
2022-08-16T05:36:33.778Z,21.29
2022-08-16T05:39:06.349Z,21.44
2022-08-16T05:41:45.626Z,21.57
2022-08-16T05:44:24.028Z,21.71
2022-08-16T05:46:56.214Z,21.80
2022-08-16T05:49:25.204Z,21.91
2022-08-16T05:52:11.647Z,22.02
2022-08-16T05:54:46.553Z,22.14
2022-08-16T05:57:15.713Z,22.39
2022-08-16T05:59:43.825Z,22.59
2022-08-16T06:02:13.333Z,22.72
2022-08-16T06:04:44.854Z,22.92
2022-08-16T06:07:24.913Z,23.06
2022-08-16T06:09:56.336Z,23.18
2022-08-16T06:12:26.702Z,23.26
2022-08-16T06:14:59.317Z,23.40
2022-08-16T06:17:41.750Z,23.50
2022-08-16T06:20:14.963Z,23.63
2022-08-16T06:22:47.894Z,23.77
2022-08-16T06:25:36.144Z,24.00
2022-08-16T06:28:09.489Z,24.19
2022-08-16T06:30:44.132Z,24.35
2022-08-16T06:33:22.126Z,24.53
2022-08-16T06:35:55.286Z,24.58
2022-08-16T06:38:33.670Z,24.63
2022-08-16T06:41:03.808Z,24.75
2022-08-16T06:43:32.430Z,24.84
2022-08-16T06:46:03.695Z,24.97
2022-08-16T06:48:34.351Z,25.07
2022-08-16T06:51:03.899Z,25.13
2022-08-16T06:53:33.840Z,25.21
2022-08-16T06:56:14.450Z,25.28
2022-08-16T06:58:52.015Z,25.36
2022-08-16T07:01:34.393Z,25.39
2022-08-16T07:04:11.884Z,25.42
2022-08-16T07:06:42.943Z,25.42
2022-08-16T07:09:12.561Z,25.40
2022-08-16T07:11:47.644Z,25.43
2022-08-16T07:14:26.257Z,25.53
2022-08-16T07:16:59.077Z,25.71
2022-08-16T07:20:01.476Z,25.95
2022-08-16T07:22:36.525Z,26.05
2022-08-16T07:25:11.916Z,26.21
2022-08-16T07:27:40.974Z,26.35
2022-08-16T07:30:39.579Z,26.43
2022-08-16T07:33:02.279Z,26.54
2022-08-16T07:35:32.082Z,26.62
2022-08-16T07:38:00.648Z,26.60
2022-08-16T07:40:56.251Z,26.54
2022-08-16T07:43:17.732Z,26.72
2022-08-16T07:45:51.128Z,26.95
2022-08-16T07:48:22.239Z,27.22
2022-08-16T07:50:55.544Z,27.41
2022-08-16T07:53:29.124Z,27.70
2022-08-16T07:55:57.904Z,27.96
2022-08-16T07:58:33.649Z,28.14
2022-08-16T08:01:10.498Z,28.24
2022-08-16T08:03:47.591Z,28.36
2022-08-16T08:06:19.042Z,28.46
2022-08-16T08:08:51.104Z,28.49
2022-08-16T08:11:21.829Z,28.53
2022-08-16T08:13:53.487Z,28.66
2022-08-16T08:16:30.384Z,28.82
2022-08-16T08:19:00.550Z,28.94
2022-08-16T08:21:59.427Z,28.91
2022-08-16T08:24:20.904Z,28.94
2022-08-16T08:26:50.440Z,29.02
2022-08-16T08:29:22.969Z,29.14
2022-08-16T08:31:53.997Z,29.15
2022-08-16T08:34:23.266Z,29.33
2022-08-16T08:36:54.440Z,29.47
2022-08-16T08:39:24.136Z,29.67
2022-08-16T08:41:53.534Z,29.69
2022-08-16T08:44:28.950Z,29.65
2022-08-16T08:47:01.558Z,29.50
2022-08-16T08:49:46.514Z,29.46
2022-08-16T08:52:34.623Z,29.44
2022-08-16T08:55:10.755Z,29.40
2022-08-16T08:57:41.078Z,29.35
2022-08-16T09:00:13.011Z,29.43
2022-08-16T09:02:42.927Z,29.58
2022-08-16T09:05:15.567Z,29.77
2022-08-16T09:08:01.837Z,29.85
2022-08-16T09:10:34.073Z,29.93
2022-08-16T09:13:07.994Z,30.05
2022-08-16T09:15:36.863Z,30.04
2022-08-16T09:18:24.745Z,30.06
2022-08-16T09:20:58.627Z,30.16
2022-08-16T09:23:29.141Z,30.33
2022-08-16T09:25:57.340Z,30.46
2022-08-16T09:29:13.770Z,30.51
2022-08-16T09:31:14.170Z,30.71
2022-08-16T09:33:44.203Z,30.87
2022-08-16T09:36:31.976Z,31.00
2022-08-16T09:39:03.829Z,31.09
2022-08-16T09:41:32.271Z,31.27
2022-08-16T09:44:02.541Z,31.48
2022-08-16T09:46:50.017Z,31.76
2022-08-16T09:49:20.367Z,31.97
2022-08-16T09:51:53.615Z,32.22
2022-08-16T09:54:24.228Z,32.51
2022-08-16T09:57:00.950Z,32.93
2022-08-16T09:59:30.614Z,33.03
2022-08-16T10:01:59.811Z,33.17
2022-08-16T10:04:32.975Z,33.25
2022-08-16T10:07:15.069Z,33.28
2022-08-16T10:09:55.129Z,33.19
2022-08-16T10:12:43.249Z,32.28
2022-08-16T10:15:15.455Z,31.50
2022-08-16T10:17:59.571Z,30.81
2022-08-16T10:20:29.106Z,30.02
2022-08-16T10:23:02.048Z,29.51
2022-08-16T10:27:17.501Z,29.14
2022-08-16T10:28:27.692Z,28.84
2022-08-16T10:30:58.888Z,28.61
2022-08-16T10:33:29.706Z,28.12
2022-08-16T10:36:03.802Z,27.78
2022-08-16T10:38:36.685Z,27.66
2022-08-16T10:41:07.635Z,27.45
2022-08-16T10:43:36.886Z,27.39
2022-08-16T10:46:39.843Z,27.34
2022-08-16T10:48:54.063Z,27.24
2022-08-16T10:51:33.488Z,27.07
2022-08-16T10:54:02.831Z,27.08
2022-08-16T10:56:55.304Z,27.22
2022-08-16T10:59:45.102Z,27.31
2022-08-16T11:02:57.606Z,27.34
2022-08-16T11:05:06.792Z,27.26
2022-08-16T11:07:45.580Z,27.10
2022-08-16T11:19:06.456Z,26.70
2022-08-16T11:24:41.919Z,26.39
